createdAt,value
2018-06-11T07:27:19.766Z,25.2
2018-06-11T07:28:09.970Z,25.1
2018-06-11T07:28:59.768Z,25.2
2018-06-11T07:29:49.210Z,25.2
2018-06-11T07:30:40.230Z,25.2
2018-06-11T07:31:30.348Z,25.2
2018-06-11T07:32:20.011Z,25.2
2018-06-11T07:33:09.578Z,25.2
2018-06-11T07:34:00.090Z,25.2
2018-06-11T07:34:50.471Z,25.2
2018-06-11T07:35:39.148Z,25.2
2018-06-11T07:36:30.604Z,25.2
2018-06-11T07:37:20.655Z,25.2
2018-06-11T07:38:09.927Z,25.2
2018-06-11T07:39:00.475Z,25.2
2018-06-11T07:39:50.252Z,25.2
2018-06-11T07:40:39.483Z,25.2
2018-06-11T07:41:30.420Z,25.2
2018-06-11T07:42:20.434Z,25.2
2018-06-11T07:43:09.536Z,25.2
2018-06-11T07:44:00.638Z,25.2
2018-06-11T07:44:50.955Z,25.2
2018-06-11T07:45:39.982Z,25.2
2018-06-11T07:46:30.821Z,25.2
2018-06-11T07:47:20.849Z,25.2
2018-06-11T07:48:12.253Z,25.2
2018-06-11T07:49:00.275Z,25.3
2018-06-11T07:49:51.899Z,25.2
2018-06-11T07:50:41.399Z,25.2
2018-06-11T07:51:31.449Z,25.2
2018-06-11T07:52:20.521Z,25.2
2018-06-11T07:53:11.402Z,25.2
2018-06-11T07:54:01.373Z,25.2
2018-06-11T07:54:50.918Z,25.2
2018-06-11T07:55:41.835Z,25.2
2018-06-11T07:56:31.081Z,25.2
2018-06-11T07:57:22.281Z,25.2
2018-06-11T07:58:11.969Z,25.2
2018-06-11T07:59:02.042Z,25.2
2018-06-11T07:59:52.476Z,25.2
2018-06-11T08:00:42.275Z,25.2
2018-06-11T08:01:33.478Z,25.2
2018-06-11T08:02:21.424Z,25.2
2018-06-11T08:03:11.598Z,25.2
2018-06-11T08:04:02.566Z,25.2
2018-06-11T08:04:52.565Z,25.2
2018-06-11T08:05:41.708Z,25.3
2018-06-11T08:06:32.863Z,25.2
2018-06-11T08:07:21.648Z,25.2
2018-06-11T08:08:13.176Z,25.2
2018-06-11T08:09:02.285Z,25.2
2018-06-11T08:09:52.920Z,25.3
2018-06-11T08:10:43.191Z,25.2
2018-06-11T08:11:33.225Z,25.3
2018-06-11T08:12:23.345Z,25.2
2018-06-11T08:13:12.891Z,25.3
2018-06-11T08:14:02.779Z,25.3
2018-06-11T08:14:52.477Z,25.3
2018-06-11T08:15:42.781Z,25.2
2018-06-11T08:16:33.371Z,25.3
2018-06-11T08:17:23.982Z,25.3
2018-06-11T08:18:13.817Z,25.2
2018-06-11T08:19:04.157Z,25.2
2018-06-11T08:19:53.699Z,25.3
2018-06-11T08:20:44.054Z,25.3
2018-06-11T08:21:33.821Z,25.3
2018-06-11T08:22:23.831Z,25.3
2018-06-11T08:23:14.172Z,25.3
2018-06-11T08:24:03.992Z,25.3
2018-06-11T08:24:53.278Z,25.3
2018-06-11T08:25:44.082Z,25.3
2018-06-11T08:26:34.185Z,25.3
2018-06-11T08:27:24.308Z,25.3
2018-06-11T08:28:13.467Z,25.3
2018-06-11T08:29:04.923Z,25.3
2018-06-11T08:29:54.462Z,25.3
2018-06-11T08:30:44.445Z,25.3
2018-06-11T08:31:34.634Z,25.3
2018-06-11T08:32:23.541Z,25.3
2018-06-11T08:33:14.071Z,25.3
2018-06-11T08:34:04.743Z,25.3
2018-06-11T08:34:54.547Z,25.3
2018-06-11T08:35:45.173Z,25.3
2018-06-11T08:36:35.227Z,25.3
2018-06-11T08:37:24.786Z,25.3
2018-06-11T08:38:14.902Z,25.3
2018-06-11T08:39:04.404Z,25.3
2018-06-11T08:39:54.679Z,25.3
2018-06-11T08:40:45.025Z,25.3
2018-06-11T08:41:35.050Z,25.3
2018-06-11T08:42:24.714Z,25.3
2018-06-11T08:43:15.569Z,25.3
2018-06-11T08:44:04.511Z,25.3
2018-06-11T08:44:55.599Z,25.3
2018-06-11T08:45:45.438Z,25.3
2018-06-11T08:46:33.328Z,25.3
2018-06-11T08:47:25.346Z,25.3
2018-06-11T08:48:14.828Z,25.3
2018-06-11T08:49:05.369Z,25.3
2018-06-11T08:49:56.313Z,25.3
2018-06-11T08:50:45.596Z,25.3
2018-06-11T08:51:35.305Z,25.3
2018-06-11T08:52:25.602Z,25.3
2018-06-11T08:53:16.550Z,25.3
2018-06-11T08:54:06.110Z,25.3
2018-06-11T08:54:56.144Z,25.3
2018-06-11T08:55:46.457Z,25.3
2018-06-11T08:56:36.797Z,25.3
2018-06-11T08:57:27.102Z,25.3
2018-06-11T08:58:15.477Z,25.3
2018-06-11T08:59:06.944Z,25.3
2018-06-11T08:59:58.792Z,25.3
2018-06-11T09:00:45.774Z,25.3
2018-06-11T09:01:36.697Z,25.3
2018-06-11T09:02:26.926Z,25.3
2018-06-11T09:03:16.889Z,25.3
2018-06-11T09:04:07.352Z,25.3
2018-06-11T09:04:57.273Z,25.3
2018-06-11T09:05:46.996Z,25.3
2018-06-11T09:06:37.841Z,25.3
2018-06-11T09:07:27.107Z,25.3
2018-06-11T09:08:17.424Z,25.3
2018-06-11T09:09:07.452Z,25.3
2018-06-11T09:09:56.764Z,25.3
2018-06-11T09:10:47.337Z,25.3
2018-06-11T09:11:36.888Z,25.3
2018-06-11T09:12:27.512Z,25.3
2018-06-11T09:13:18.403Z,25.3
2018-06-11T09:14:08.184Z,25.3
2018-06-11T09:14:57.959Z,25.3
2018-06-11T09:15:48.034Z,25.3
2018-06-11T09:16:38.025Z,25.3
2018-06-11T09:17:27.420Z,25.3
2018-06-11T09:18:23.291Z,25.3
2018-06-11T09:19:07.724Z,25.3
2018-06-11T09:19:58.114Z,25.3
2018-06-11T09:20:47.942Z,25.3
2018-06-11T09:21:38.197Z,25.3
2018-06-11T09:22:28.530Z,25.3
2018-06-11T09:23:18.555Z,25.3
2018-06-11T09:24:08.091Z,25.3
2018-06-11T09:24:58.894Z,25.3
2018-06-11T09:25:48.578Z,25.3
2018-06-11T09:26:39.110Z,25.3
2018-06-11T09:27:29.040Z,25.3
2018-06-11T09:28:19.226Z,25.3
2018-06-11T09:29:09.547Z,25.3
2018-06-11T09:29:59.130Z,25.3
2018-06-11T09:30:49.193Z,25.3
2018-06-11T09:31:39.516Z,25.3
2018-06-11T09:32:28.995Z,25.3
2018-06-11T09:33:18.867Z,25.3
2018-06-11T09:34:09.156Z,25.3
2018-06-11T09:34:59.504Z,25.3
2018-06-11T09:35:49.642Z,25.3
2018-06-11T09:36:40.133Z,25.3
2018-06-11T09:37:29.644Z,25.3
2018-06-11T09:38:20.561Z,25.4
2018-06-11T09:39:09.805Z,25.3
2018-06-11T09:39:59.951Z,25.4
2018-06-11T09:40:49.259Z,25.4
2018-06-11T09:41:39.210Z,25.3
2018-06-11T09:42:30.368Z,25.4
2018-06-11T09:43:19.296Z,25.4
2018-06-11T09:44:11.724Z,25.4
2018-06-11T09:45:00.307Z,25.4
2018-06-11T09:45:49.781Z,25.4
2018-06-11T09:46:40.675Z,25.4
2018-06-11T09:47:30.199Z,25.3
2018-06-11T09:48:19.669Z,25.4
2018-06-11T09:49:10.573Z,25.4
2018-06-11T09:50:00.259Z,25.4
2018-06-11T09:50:49.901Z,25.4
2018-06-11T09:51:40.109Z,25.4
2018-06-11T09:52:31.144Z,25.4
2018-06-11T09:53:20.952Z,25.4
2018-06-11T09:54:09.864Z,25.4
2018-06-11T09:55:01.643Z,25.4
2018-06-11T09:55:51.072Z,25.4
2018-06-11T09:56:41.512Z,25.4
2018-06-11T09:57:30.944Z,25.4
2018-06-11T09:58:21.089Z,25.4
2018-06-11T09:59:11.379Z,25.4
2018-06-11T10:00:00.604Z,25.4
2018-06-11T10:00:51.515Z,25.4
2018-06-11T10:01:41.414Z,25.4
2018-06-11T10:02:31.052Z,25.4
2018-06-11T10:03:21.470Z,25.4
2018-06-11T10:04:11.829Z,25.4
2018-06-11T10:05:01.810Z,25.4
2018-06-11T10:05:51.386Z,25.4
2018-06-11T10:06:41.978Z,25.4
2018-06-11T10:07:31.520Z,25.4
2018-06-11T10:08:20.975Z,25.4
2018-06-11T10:09:12.944Z,25.4
2018-06-11T10:10:02.483Z,25.4
2018-06-11T10:10:52.547Z,25.4
2018-06-11T10:11:41.516Z,25.4
2018-06-11T10:12:33.973Z,25.4
2018-06-11T10:13:22.993Z,25.4
2018-06-11T10:14:12.274Z,25.4
2018-06-11T10:15:02.273Z,25.4
2018-06-11T10:15:52.682Z,25.4
2018-06-11T10:16:42.448Z,25.4
2018-06-11T10:17:31.750Z,25.4
2018-06-11T10:18:22.835Z,25.4
2018-06-11T10:19:12.450Z,25.4
2018-06-11T10:20:03.326Z,25.4
2018-06-11T10:20:53.067Z,25.4
2018-06-11T10:21:43.111Z,25.4
2018-06-11T10:22:33.190Z,25.4
2018-06-11T10:23:22.709Z,25.4
2018-06-11T10:24:13.655Z,25.4
2018-06-11T10:25:04.415Z,25.4
2018-06-11T10:25:53.988Z,25.4
2018-06-11T10:26:43.792Z,25.4
2018-06-11T10:27:33.878Z,25.4
2018-06-11T10:28:24.232Z,25.4
2018-06-11T10:29:13.746Z,25.4
2018-06-11T10:30:03.219Z,25.4
2018-06-11T10:30:54.180Z,25.4
2018-06-11T10:31:43.683Z,25.4
2018-06-11T10:32:33.571Z,25.4
2018-06-11T10:33:24.001Z,25.4
2018-06-11T10:34:14.067Z,25.4
2018-06-11T10:35:04.731Z,25.4
2018-06-11T10:35:54.746Z,25.4
2018-06-11T10:36:43.751Z,25.4
2018-06-11T10:37:34.125Z,25.4
2018-06-11T10:38:24.625Z,25.4
2018-06-11T10:39:14.742Z,25.4
2018-06-11T10:40:03.693Z,25.4
2018-06-11T10:40:54.345Z,25.4
2018-06-11T10:41:44.381Z,25.4
2018-06-11T10:42:34.684Z,25.4
2018-06-11T10:43:23.492Z,25.4
2018-06-11T10:44:13.840Z,25.4
2018-06-11T10:45:04.692Z,25.4
2018-06-11T10:45:55.338Z,25.4
2018-06-11T10:46:45.603Z,25.4
2018-06-11T10:47:35.371Z,25.4
2018-06-11T10:48:24.393Z,25.4
2018-06-11T10:49:14.999Z,25.4
2018-06-11T10:50:04.553Z,25.4
2018-06-11T10:50:54.847Z,25.4
2018-06-11T10:51:45.993Z,25.4
2018-06-11T10:52:35.068Z,25.4
2018-06-11T10:53:24.750Z,25.4
2018-06-11T10:54:16.248Z,25.4
2018-06-11T10:55:04.718Z,25.5
2018-06-11T10:55:55.312Z,25.4
2018-06-11T10:56:44.764Z,25.4
2018-06-11T10:57:35.944Z,25.4
2018-06-11T10:58:25.257Z,25.4
2018-06-11T10:59:15.555Z,25.4
2018-06-11T11:00:05.835Z,25.4
2018-06-11T11:00:55.352Z,25.4
2018-06-11T11:01:45.699Z,25.4
2018-06-11T11:02:35.455Z,25.4
2018-06-11T11:03:25.835Z,25.4
2018-06-11T11:04:16.443Z,25.4
2018-06-11T11:05:06.575Z,25.4
2018-06-11T11:05:57.186Z,25.5
2018-06-11T11:06:46.663Z,25.4
2018-06-11T11:07:37.086Z,25.5
2018-06-11T11:08:27.062Z,25.5
2018-06-11T11:09:16.782Z,25.5
2018-06-11T11:10:07.179Z,25.5
2018-06-11T11:10:57.567Z,25.4
2018-06-11T11:11:46.700Z,25.5
2018-06-11T11:12:37.963Z,25.5
2018-06-11T11:13:27.114Z,25.5
2018-06-11T11:14:17.721Z,25.4
2018-06-11T11:15:07.573Z,25.5
2018-06-11T11:15:56.800Z,25.5
2018-06-11T11:16:47.107Z,25.5
2018-06-11T11:17:36.679Z,25.5
2018-06-11T11:18:27.523Z,25.4
2018-06-11T11:19:17.341Z,25.5
2018-06-11T11:20:06.875Z,25.5
2018-06-11T11:20:57.500Z,25.5
2018-06-11T11:21:48.060Z,25.5
2018-06-11T11:22:38.161Z,25.5
2018-06-11T11:23:27.931Z,25.5
2018-06-11T11:24:18.243Z,25.5
2018-06-11T11:25:07.890Z,25.5
2018-06-11T11:25:58.413Z,25.5
2018-06-11T11:26:48.145Z,25.5
2018-06-11T11:27:37.921Z,25.5
2018-06-11T11:28:28.618Z,25.5
2018-06-11T11:29:17.533Z,25.5
2018-06-11T11:30:07.856Z,25.5
2018-06-11T11:30:58.448Z,25.5
2018-06-11T11:31:49.127Z,25.5
2018-06-11T11:32:38.030Z,25.5
2018-06-11T11:33:29.192Z,25.5
2018-06-11T11:34:18.468Z,25.5
2018-06-11T11:35:09.114Z,25.5
2018-06-11T11:35:58.089Z,25.5
2018-06-11T11:36:49.475Z,25.5
2018-06-11T11:37:39.307Z,25.5
2018-06-11T11:38:28.587Z,25.5
2018-06-11T11:39:19.439Z,25.5
2018-06-11T11:40:09.518Z,25.5
2018-06-11T11:40:58.978Z,25.5
2018-06-11T11:41:49.908Z,25.5
2018-06-11T11:42:39.921Z,25.5
2018-06-11T11:43:28.674Z,25.5
2018-06-11T11:44:19.548Z,25.5
2018-06-11T11:45:09.316Z,25.5
2018-06-11T11:45:59.964Z,25.5
2018-06-11T11:46:49.410Z,25.5
2018-06-11T11:47:39.810Z,25.5
2018-06-11T11:48:29.943Z,25.5
2018-06-11T11:49:20.188Z,25.5
2018-06-11T11:50:10.534Z,25.5
2018-06-11T11:50:59.787Z,25.5
2018-06-11T11:51:50.401Z,25.5
2018-06-11T11:52:40.239Z,25.5
2018-06-11T11:53:30.815Z,25.5
2018-06-11T11:54:20.016Z,25.5
2018-06-11T11:55:10.144Z,25.6
2018-06-11T11:56:00.449Z,25.5
2018-06-11T11:56:50.242Z,25.5
2018-06-11T11:57:41.361Z,25.5
2018-06-11T11:58:31.199Z,25.6
2018-06-11T11:59:21.034Z,25.5
2018-06-11T12:00:10.565Z,25.5
2018-06-11T12:01:00.853Z,25.5
2018-06-11T12:01:51.814Z,25.5
2018-06-11T12:02:41.074Z,25.5
2018-06-11T12:03:31.622Z,25.4
2018-06-11T12:04:20.861Z,25.6
2018-06-11T12:05:11.130Z,25.5
2018-06-11T12:06:01.223Z,25.6
2018-06-11T12:06:51.881Z,25.6
2018-06-11T12:07:42.004Z,25.5
2018-06-11T12:08:31.496Z,25.5
2018-06-11T12:09:21.486Z,25.5
2018-06-11T12:10:11.620Z,25.5
2018-06-11T12:11:01.089Z,25.6
2018-06-11T12:11:51.518Z,25.6
2018-06-11T12:12:41.765Z,25.5
2018-06-11T12:13:31.004Z,25.6
2018-06-11T12:14:21.676Z,25.6
2018-06-11T12:15:12.258Z,25.6
2018-06-11T12:16:01.170Z,25.6
2018-06-11T12:16:51.499Z,25.6
2018-06-11T12:17:42.076Z,25.6
2018-06-11T12:18:32.799Z,25.5
2018-06-11T12:19:21.711Z,25.6
2018-06-11T12:20:12.317Z,25.6
2018-06-11T12:21:02.415Z,25.6
2018-06-11T12:21:52.446Z,25.6
2018-06-11T12:22:42.493Z,25.6
2018-06-11T12:23:32.256Z,25.5
2018-06-11T12:24:22.397Z,25.5
2018-06-11T12:25:13.827Z,25.6
2018-06-11T12:26:02.258Z,25.6
2018-06-11T12:26:51.488Z,25.6
2018-06-11T12:27:43.248Z,25.5
2018-06-11T12:28:32.964Z,25.6
2018-06-11T12:29:21.942Z,25.6
2018-06-11T12:30:13.098Z,25.5
2018-06-11T12:31:03.160Z,25.5
2018-06-11T12:31:52.430Z,25.6
2018-06-11T12:32:43.319Z,25.5
2018-06-11T12:33:33.342Z,25.6
2018-06-11T12:34:23.673Z,25.6
2018-06-11T12:35:13.494Z,25.6
2018-06-11T12:36:03.538Z,25.6
2018-06-11T12:36:52.775Z,25.6
2018-06-11T12:37:42.879Z,25.6
2018-06-11T12:38:34.129Z,25.6
2018-06-11T12:39:23.589Z,25.6
2018-06-11T12:40:12.789Z,25.6
2018-06-11T12:41:03.949Z,25.6
2018-06-11T12:41:54.341Z,25.6
2018-06-11T12:42:43.843Z,25.6
2018-06-11T12:43:33.623Z,25.6
2018-06-11T12:44:22.809Z,25.6
2018-06-11T12:45:14.079Z,25.6
2018-06-11T12:46:04.135Z,25.6
2018-06-11T12:46:54.739Z,25.5
2018-06-11T12:47:45.053Z,25.6
2018-06-11T12:48:34.245Z,25.6
2018-06-11T12:49:25.247Z,25.6
2018-06-11T12:50:13.590Z,25.6
2018-06-11T12:51:03.886Z,25.6
2018-06-11T12:51:54.495Z,25.6
2018-06-11T12:52:45.617Z,25.6
2018-06-11T12:53:35.493Z,25.6
2018-06-11T12:54:24.523Z,25.6
2018-06-11T12:55:15.100Z,25.6
2018-06-11T12:56:05.432Z,25.6
2018-06-11T12:56:55.190Z,25.6
2018-06-11T12:57:44.986Z,25.6
2018-06-11T12:58:34.762Z,25.6
2018-06-11T12:59:25.650Z,25.6
2018-06-11T13:00:15.480Z,25.6
2018-06-11T13:01:05.852Z,25.6
2018-06-11T13:01:56.229Z,25.6
2018-06-11T13:02:46.265Z,25.6
2018-06-11T13:03:35.715Z,25.6
2018-06-11T13:04:25.307Z,25.6
2018-06-11T13:05:15.922Z,25.6
2018-06-11T13:06:05.133Z,25.6
2018-06-11T13:06:56.294Z,25.6
2018-06-11T13:07:46.357Z,25.7
2018-06-11T13:08:36.415Z,25.6
2018-06-11T13:09:26.700Z,25.6
2018-06-11T13:10:16.611Z,25.6
2018-06-11T13:11:06.877Z,25.6
2018-06-11T13:11:55.876Z,25.6
2018-06-11T13:12:46.175Z,25.6
2018-06-11T13:13:36.539Z,25.6
2018-06-11T13:14:26.059Z,25.6
2018-06-11T13:15:16.121Z,25.6
2018-06-11T13:16:06.181Z,25.7
2018-06-11T13:16:56.768Z,25.6
2018-06-11T13:17:46.752Z,25.7
2018-06-11T13:18:35.814Z,25.6
2018-06-11T13:19:25.969Z,25.6
2018-06-11T13:20:16.317Z,25.6
2018-06-11T13:21:06.816Z,25.7
2018-06-11T13:21:57.207Z,25.6
2018-06-11T13:22:46.976Z,25.7
2018-06-11T13:23:37.406Z,25.7
2018-06-11T13:24:26.354Z,25.7
2018-06-11T13:25:16.329Z,25.7
2018-06-11T13:26:07.230Z,25.6
2018-06-11T13:26:56.991Z,25.7
2018-06-11T13:27:47.318Z,25.6
2018-06-11T13:28:37.377Z,25.7
2018-06-11T13:29:28.299Z,25.8
2018-06-11T13:30:18.105Z,25.7
2018-06-11T13:31:07.101Z,25.7
2018-06-11T13:31:57.950Z,25.7
2018-06-11T13:32:47.783Z,25.7
2018-06-11T13:33:38.308Z,25.7
2018-06-11T13:34:27.837Z,25.7
2018-06-11T13:35:18.493Z,25.7
2018-06-11T13:36:08.335Z,25.7
2018-06-11T13:36:57.257Z,25.7
2018-06-11T13:37:46.736Z,25.7
2018-06-11T13:38:38.737Z,25.7
2018-06-11T13:39:28.247Z,25.7
2018-06-11T13:40:18.945Z,25.7
2018-06-11T13:41:08.404Z,25.7
2018-06-11T13:41:58.713Z,25.7
2018-06-11T13:42:49.090Z,25.7
2018-06-11T13:43:38.019Z,25.7
2018-06-11T13:44:28.408Z,25.8
2018-06-11T13:45:19.010Z,25.7
2018-06-11T13:46:08.530Z,25.7
2018-06-11T13:46:58.016Z,25.8
2018-06-11T13:47:48.949Z,25.7
2018-06-11T13:48:39.307Z,25.7
2018-06-11T13:49:27.957Z,25.7
2018-06-11T13:50:20.229Z,25.8
2018-06-11T13:51:09.709Z,25.7
2018-06-11T13:51:59.207Z,25.7
2018-06-11T13:52:49.090Z,25.8
2018-06-11T13:53:40.009Z,25.7
2018-06-11T13:54:29.918Z,25.7
2018-06-11T13:55:20.353Z,25.7
2018-06-11T13:56:10.064Z,25.8
2018-06-11T13:57:00.343Z,25.8
2018-06-11T13:57:50.248Z,25.7
2018-06-11T13:58:40.019Z,25.8
2018-06-11T13:59:29.517Z,25.7
2018-06-11T14:00:20.200Z,25.8
2018-06-11T14:01:10.194Z,25.7
2018-06-11T14:02:00.839Z,25.7
2018-06-11T14:02:50.858Z,25.7
2018-06-11T14:03:40.398Z,25.8
2018-06-11T14:04:29.915Z,25.7
2018-06-11T14:05:20.653Z,25.8
2018-06-11T14:06:10.383Z,25.7
2018-06-11T14:07:00.630Z,25.7
2018-06-11T14:07:51.374Z,25.7
2018-06-11T14:08:40.771Z,25.8
2018-06-11T14:09:31.180Z,25.8
2018-06-11T14:10:21.005Z,25.7
2018-06-11T14:11:10.732Z,25.7
2018-06-11T14:12:00.262Z,25.8
2018-06-11T14:12:50.186Z,25.7
2018-06-11T14:13:40.688Z,25.7
2018-06-11T14:14:30.978Z,25.8
2018-06-11T14:15:21.063Z,25.7
2018-06-11T14:16:10.631Z,25.7
2018-06-11T14:17:01.748Z,25.7
2018-06-11T14:17:50.980Z,25.7
2018-06-11T14:18:41.304Z,25.7
2018-06-11T14:19:31.583Z,25.7
2018-06-11T14:20:21.774Z,25.7
2018-06-11T14:21:11.857Z,25.8
2018-06-11T14:22:02.094Z,25.7
2018-06-11T14:22:51.376Z,25.7
2018-06-11T14:23:41.942Z,25.7
2018-06-11T14:24:31.754Z,25.7
2018-06-11T14:25:21.834Z,25.8
2018-06-11T14:26:11.905Z,25.7
2018-06-11T14:27:02.553Z,25.7
2018-06-11T14:27:51.993Z,25.7
2018-06-11T14:28:43.502Z,25.7
2018-06-11T14:29:31.942Z,25.7
2018-06-11T14:30:22.268Z,25.8
2018-06-11T14:31:11.860Z,25.8
2018-06-11T14:32:02.376Z,25.7
2018-06-11T14:32:51.593Z,25.7
2018-06-11T14:33:43.401Z,25.8
2018-06-11T14:34:33.424Z,25.8
2018-06-11T14:35:21.917Z,25.8
2018-06-11T14:36:13.234Z,25.8
2018-06-11T14:37:02.217Z,25.8
2018-06-11T14:37:53.618Z,25.8
2018-06-11T14:38:42.339Z,25.8
2018-06-11T14:39:33.081Z,25.8
2018-06-11T14:40:23.926Z,25.8
2018-06-11T14:41:13.650Z,25.8
2018-06-11T14:42:03.466Z,25.8
2018-06-11T14:42:53.850Z,25.8
2018-06-11T14:43:43.304Z,25.8
2018-06-11T14:44:32.877Z,25.8
2018-06-11T14:45:23.107Z,25.8
2018-06-11T14:46:13.468Z,25.8
2018-06-11T14:47:03.560Z,25.8
2018-06-11T14:47:53.365Z,25.8
2018-06-11T14:48:42.849Z,25.8
2018-06-11T14:49:34.615Z,25.8
2018-06-11T14:50:23.830Z,25.8
2018-06-11T14:51:13.315Z,25.8
2018-06-11T14:52:03.392Z,25.8
2018-06-11T14:52:54.032Z,25.8
2018-06-11T14:53:43.777Z,25.8
2018-06-11T14:54:34.454Z,25.8
2018-06-11T14:55:24.726Z,25.8
2018-06-11T14:56:14.291Z,25.8
2018-06-11T14:57:04.248Z,25.8
2018-06-11T14:57:53.803Z,25.8
2018-06-11T14:58:45.036Z,25.8
2018-06-11T14:59:35.299Z,25.8
2018-06-11T15:00:25.122Z,25.9
2018-06-11T15:01:15.441Z,25.9
2018-06-11T15:02:05.064Z,25.9
2018-06-11T15:02:55.343Z,25.9
2018-06-11T15:03:45.183Z,25.9
2018-06-11T15:04:34.117Z,25.9
2018-06-11T15:05:25.498Z,25.9
2018-06-11T15:06:15.283Z,25.9
2018-06-11T15:07:04.826Z,25.9
2018-06-11T15:07:55.500Z,25.9
2018-06-11T15:08:45.963Z,25.9
2018-06-11T15:09:36.786Z,25.9
2018-06-11T15:10:25.847Z,25.9
2018-06-11T15:11:15.735Z,25.9
2018-06-11T15:12:06.272Z,25.9
2018-06-11T15:12:55.826Z,25.9
2018-06-11T15:13:45.818Z,25.9
2018-06-11T15:14:36.240Z,25.9
2018-06-11T15:15:26.351Z,25.9
2018-06-11T15:16:16.593Z,25.9
2018-06-11T15:17:05.857Z,25.9
2018-06-11T15:17:56.737Z,25.9
2018-06-11T15:18:45.966Z,25.9
2018-06-11T15:19:36.579Z,25.9
2018-06-11T15:20:26.406Z,25.9
2018-06-11T15:21:16.988Z,25.9
2018-06-11T15:22:07.039Z,25.9
2018-06-11T15:22:56.902Z,25.9
2018-06-11T15:23:46.440Z,25.9
2018-06-11T15:24:37.105Z,25.9
2018-06-11T15:25:27.091Z,25.9
2018-06-11T15:26:17.168Z,25.9
2018-06-11T15:27:06.440Z,25.9
2018-06-11T15:27:57.265Z,25.9
2018-06-11T15:28:45.977Z,25.9
2018-06-11T15:29:37.562Z,25.9
2018-06-11T15:30:27.230Z,25.9
2018-06-11T15:31:17.793Z,25.9
2018-06-11T15:32:06.726Z,25.9
2018-06-11T15:32:56.543Z,25.9
2018-06-11T15:33:47.446Z,25.9
2018-06-11T15:34:36.976Z,25.9
2018-06-11T15:35:27.857Z,25.9
2018-06-11T15:36:17.862Z,25.9
2018-06-11T15:37:07.167Z,25.9
2018-06-11T15:37:58.321Z,25.9
2018-06-11T15:38:47.311Z,25.9
2018-06-11T15:39:37.651Z,25.9
2018-06-11T15:40:28.529Z,25.9
2018-06-11T15:41:18.021Z,25.9
2018-06-11T15:42:07.338Z,25.9
2018-06-11T15:42:57.884Z,25.9
2018-06-11T15:43:46.800Z,25.9
2018-06-11T15:44:37.173Z,25.9
2018-06-11T15:45:28.432Z,26
2018-06-11T15:46:18.413Z,25.9
2018-06-11T15:47:08.188Z,25.9
2018-06-11T15:47:58.280Z,25.9
2018-06-11T15:48:48.065Z,25.9
2018-06-11T15:49:38.181Z,25.9
2018-06-11T15:50:29.088Z,25.9
2018-06-11T15:51:18.512Z,26
2018-06-11T15:52:09.112Z,26
2018-06-11T15:52:59.210Z,25.9
2018-06-11T15:53:47.905Z,26
2018-06-11T15:54:38.276Z,25.9
2018-06-11T15:55:29.150Z,26
2018-06-11T15:56:18.890Z,26
2018-06-11T15:57:08.993Z,26
2018-06-11T15:57:59.930Z,26
2018-06-11T15:58:49.394Z,26
2018-06-11T15:59:38.662Z,26
2018-06-11T16:00:29.313Z,25.9
2018-06-11T16:01:19.014Z,26
2018-06-11T16:02:09.102Z,25.9
2018-06-11T16:02:59.420Z,26
2018-06-11T16:03:49.743Z,26
2018-06-11T16:04:39.806Z,26
2018-06-11T16:05:30.903Z,26
2018-06-11T16:06:19.995Z,26
2018-06-11T16:07:10.059Z,26
2018-06-11T16:07:59.796Z,26
2018-06-11T16:08:50.513Z,26
2018-06-11T16:09:39.440Z,26
2018-06-11T16:10:29.712Z,26
2018-06-11T16:11:20.657Z,26
2018-06-11T16:12:11.042Z,26
2018-06-11T16:13:00.805Z,26
2018-06-11T16:13:50.873Z,26
2018-06-11T16:14:40.473Z,26
2018-06-11T16:15:31.242Z,26
2018-06-11T16:16:20.505Z,26
2018-06-11T16:17:10.548Z,26
2018-06-11T16:18:01.139Z,26
2018-06-11T16:18:50.705Z,26
2018-06-11T16:19:41.051Z,26
2018-06-11T16:20:31.369Z,26
2018-06-11T16:21:21.722Z,26
2018-06-11T16:22:11.820Z,26
2018-06-11T16:23:01.314Z,26
2018-06-11T16:23:51.647Z,26.1
2018-06-11T16:24:40.916Z,26.1
2018-06-11T16:25:31.837Z,26
2018-06-11T16:26:20.992Z,26
2018-06-11T16:27:11.651Z,26
2018-06-11T16:28:01.197Z,26
2018-06-11T16:28:51.194Z,26
2018-06-11T16:29:40.929Z,26.1
2018-06-11T16:30:31.866Z,26.1
2018-06-11T16:31:22.242Z,26.1
2018-06-11T16:32:12.331Z,26.1
2018-06-11T16:33:01.838Z,26
2018-06-11T16:33:52.126Z,26.1
2018-06-11T16:34:42.071Z,26.1
2018-06-11T16:35:32.013Z,26.1
2018-06-11T16:36:22.365Z,26.1
2018-06-11T16:37:13.548Z,26.1
2018-06-11T16:38:02.455Z,26.1
2018-06-11T16:38:52.516Z,26
2018-06-11T16:39:42.861Z,26.1
2018-06-11T16:40:32.930Z,26.1
2018-06-11T16:41:21.027Z,26.1
2018-06-11T16:42:13.133Z,26.1
2018-06-11T16:43:04.259Z,26.1
2018-06-11T16:43:52.055Z,26.1
2018-06-11T16:44:42.434Z,26.1
2018-06-11T16:45:32.483Z,26.1
2018-06-11T16:46:22.776Z,26
2018-06-11T16:47:12.742Z,26.1
2018-06-11T16:48:03.821Z,26.1
2018-06-11T16:48:54.236Z,26.1
2018-06-11T16:49:43.723Z,26.1
2018-06-11T16:50:32.663Z,26.1
2018-06-11T16:51:23.600Z,26.1
2018-06-11T16:52:13.562Z,26.1
2018-06-11T16:53:02.795Z,26.1
2018-06-11T16:53:53.724Z,26.1
2018-06-11T16:54:44.122Z,26.1
2018-06-11T16:55:33.565Z,26.1
2018-06-11T16:56:22.810Z,26.1
2018-06-11T16:57:13.112Z,26
2018-06-11T16:58:03.000Z,26.1
2018-06-11T16:58:53.625Z,26
2018-06-11T16:59:44.497Z,26.1
2018-06-11T17:00:33.632Z,26
2018-06-11T17:01:24.345Z,26
2018-06-11T17:02:10.860Z,26.1
2018-06-11T17:03:03.532Z,26.1
2018-06-11T17:03:52.514Z,26
2018-06-11T17:04:42.762Z,26
2018-06-11T17:05:32.982Z,26
2018-06-11T17:06:22.882Z,26
2018-06-11T17:07:12.842Z,26
2018-06-11T17:08:02.465Z,26
2018-06-11T17:08:52.824Z,26
2018-06-11T17:09:43.524Z,26
2018-06-11T17:10:33.057Z,26
2018-06-11T17:11:23.943Z,26
2018-06-11T17:12:12.265Z,26
2018-06-11T17:13:02.880Z,26
2018-06-11T17:13:52.728Z,26
2018-06-11T17:14:44.806Z,26
2018-06-11T17:15:33.398Z,26
2018-06-11T17:16:24.008Z,26
2018-06-11T17:17:15.812Z,26
2018-06-11T17:18:05.813Z,26
2018-06-11T17:18:55.352Z,26
2018-06-11T17:19:45.966Z,26
2018-06-11T17:20:35.759Z,26
2018-06-11T17:21:26.376Z,26
2018-06-11T17:22:15.874Z,26
2018-06-11T17:23:05.988Z,26
2018-06-11T17:23:56.036Z,26
2018-06-11T17:24:46.067Z,26
2018-06-11T17:25:36.756Z,26
2018-06-11T17:26:25.914Z,26
2018-06-11T17:27:16.057Z,26
2018-06-11T17:28:06.089Z,25.9
2018-06-11T17:28:56.920Z,25.9
2018-06-11T17:29:46.152Z,25.9
2018-06-11T17:30:36.775Z,25.9
2018-06-11T17:31:26.294Z,25.9
2018-06-11T17:32:17.176Z,25.9
2018-06-11T17:33:07.030Z,25.9
2018-06-11T17:33:56.784Z,26
2018-06-11T17:34:47.935Z,25.9
2018-06-11T17:35:37.488Z,25.9
2018-06-11T17:36:27.561Z,25.9
2018-06-11T17:37:16.835Z,25.9
2018-06-11T17:38:06.587Z,25.9
2018-06-11T17:38:56.072Z,25.9
2018-06-11T17:39:46.383Z,25.9
2018-06-11T17:40:36.833Z,25.9
2018-06-11T17:41:27.661Z,25.9
2018-06-11T17:42:17.442Z,25.9
2018-06-11T17:43:06.506Z,25.9
2018-06-11T17:43:57.334Z,25.9
2018-06-11T17:44:47.944Z,25.9
2018-06-11T17:45:36.345Z,25.9
2018-06-11T17:46:27.554Z,25.9
2018-06-11T17:47:17.594Z,25.9
2018-06-11T17:48:07.360Z,25.9
2018-06-11T17:48:57.370Z,25.9
2018-06-11T17:49:48.369Z,25.9
2018-06-11T17:50:37.529Z,25.9
2018-06-11T17:51:29.054Z,25.9
2018-06-11T17:52:18.113Z,25.9
2018-06-11T17:53:07.498Z,25.9
2018-06-11T17:53:58.646Z,25.9
2018-06-11T17:54:49.030Z,25.9
2018-06-11T17:55:37.927Z,25.9
2018-06-11T17:56:28.808Z,25.9
2018-06-11T17:57:19.335Z,25.9
2018-06-11T17:58:08.690Z,25.9
2018-06-11T17:58:59.379Z,25.9
2018-06-11T17:59:48.592Z,25.9
2018-06-11T18:00:40.350Z,25.9
2018-06-11T18:01:28.694Z,25.9
2018-06-11T18:02:18.835Z,25.9
2018-06-11T18:03:08.880Z,25.9
2018-06-11T18:03:58.900Z,25.9
2018-06-11T18:04:49.996Z,25.9
2018-06-11T18:05:40.253Z,25.9
2018-06-11T18:06:29.108Z,25.9
2018-06-11T18:07:18.840Z,25.9
2018-06-11T18:08:09.725Z,25.9
2018-06-11T18:08:58.952Z,25.9
2018-06-11T18:09:49.950Z,25.9
2018-06-11T18:10:39.439Z,25.9
2018-06-11T18:11:30.017Z,25.9
2018-06-11T18:12:18.912Z,25.9
2018-06-11T18:13:09.307Z,25.9
2018-06-11T18:13:59.106Z,25.9
2018-06-11T18:14:50.239Z,25.9
2018-06-11T18:15:40.375Z,25.9
2018-06-11T18:16:30.407Z,25.9
2018-06-11T18:17:19.366Z,25.9
2018-06-11T18:18:10.247Z,25.9
2018-06-11T18:18:58.317Z,25.9
2018-06-11T18:19:49.517Z,25.8
2018-06-11T18:20:40.484Z,25.9
2018-06-11T18:21:30.291Z,25.9
2018-06-11T18:22:20.033Z,25.9
2018-06-11T18:23:10.605Z,25.8
2018-06-11T18:24:00.496Z,25.9
2018-06-11T18:24:49.687Z,25.8
2018-06-11T18:25:39.791Z,25.8
2018-06-11T18:26:30.394Z,25.8
2018-06-11T18:27:21.262Z,25.8
2018-06-11T18:28:10.203Z,25.8
2018-06-11T18:29:00.281Z,25.9
2018-06-11T18:29:49.174Z,25.8
2018-06-11T18:30:39.801Z,25.8
2018-06-11T18:31:30.701Z,25.8
2018-06-11T18:32:21.136Z,25.8
2018-06-11T18:33:09.751Z,25.8
2018-06-11T18:34:01.854Z,25.8
2018-06-11T18:34:51.243Z,25.8
2018-06-11T18:35:41.435Z,25.8
2018-06-11T18:36:30.574Z,25.8
2018-06-11T18:37:20.063Z,25.8